Time;durP1;ratioP1;P1;durP2;ratioP2;P2;SDS_P1;SDS_P2;PMS_P1;PMS_P2;Temp;Humidity;BMP_temperature;BMP_pressure;BME280_temperature;BME280_humidity;BME280_pressure;Samples;Min_cycle;Max_cycle;Signal;HPM_P1;HPM_P2
2024/01/27 00:01:07;;;;;;;6.20;1.38;;;;;;;;;;4908563;29;20452;-78
2024/01/27 00:03:33;;;;;;;8.27;1.42;;;;;;;;;;4912999;29;20035;-78
2024/01/27 00:09:05;;;;;;;5.07;1.20;;;;;;;;;;4888976;29;20511;-78
2024/01/27 00:11:31;;;;;;;11.68;1.63;;;;;;;;;;4906505;29;20032;-79
2024/01/27 00:13:59;;;;;;;;;;;;;;;;;;4903682;29;20040;-78
2024/01/27 00:16:26;;;;;;;10.82;1.40;;;;;;;;;;4903116;29;19912;-79
2024/01/27 00:18:55;;;;;;;10.60;1.77;;;;;;;;;;4903430;29;20369;-79
2024/01/27 00:21:22;;;;;;;7.15;1.23;;;;;;;;;;4878819;29;20036;-79
2024/01/27 00:23:48;;;;;;;8.75;1.33;;;;;;;;;;4905781;29;20511;-79
2024/01/27 00:26:23;;;;;;;6.65;1.15;;;;;;;;;;4889267;29;20080;-79
2024/01/27 00:28:54;;;;;;;6.50;1.33;;;;;;;;;;4901158;29;20484;-78
2024/01/27 00:31:22;;;;;;;5.75;1.13;;;;;;;;;;4899588;29;20448;-79
2024/01/27 00:33:51;;;;;;;4.75;1.33;;;;;;;;;;4907663;29;20083;-79
2024/01/27 00:36:19;;;;;;;8.82;1.60;;;;;;;;;;4913732;29;20042;-79
2024/01/27 00:38:45;;;;;;;9.50;1.17;;;;;;;;;;4874040;29;20033;-78
2024/01/27 00:41:17;;;;;;;6.70;1.23;;;;;;;;;;4905777;29;20388;-78
2024/01/27 00:43:43;;;;;;;4.15;1.00;;;;;;;;;;4890842;29;20036;-78
2024/01/27 00:46:09;;;;;;;10.20;1.58;;;;;;;;;;4891593;29;20067;-78
2024/01/27 00:48:37;;;;;;;5.90;1.15;;;;;;;;;;4889254;29;20068;-79
2024/01/27 00:51:05;;;;;;;12.13;1.50;;;;;;;;;;4886965;29;20036;-78
2024/01/27 00:53:33;;;;;;;13.32;1.77;;;;;;;;;;4890814;29;20033;-79
2024/01/27 00:55:59;;;;;;;8.85;1.58;;;;;;;;;;4885234;29;20489;-78
2024/01/27 01:13:25;;;;;;;9.45;1.40;;;;;;;;;;4892769;23;20030;-78
2024/01/27 01:15:56;;;;;;;11.45;1.55;;;;;;;;;;4949601;29;20061;-78
2024/01/27 01:18:24;;;;;;;12.88;1.42;;;;;;;;;;4966149;28;20031;-79
2024/01/27 01:20:50;;;;;;;13.18;1.15;;;;;;;;;;4949917;28;20026;-79
2024/01/27 01:23:18;;;;;;;15.30;1.67;;;;;;;;;;4974338;28;20023;-78
2024/01/27 01:25:44;;;;;;;10.57;1.77;;;;;;;;;;4956509;28;20051;-79
2024/01/27 01:28:13;;;;;;;9.57;1.50;;;;;;;;;;4949941;28;20019;-78
2024/01/27 01:30:41;;;;;;;12.18;1.58;;;;;;;;;;4960591;29;20085;-79
2024/01/27 01:33:39;;;;;;;5.63;1.27;;;;;;;;;;4946299;28;20055;-79
2024/01/27 01:36:26;;;;;;;9.57;1.65;;;;;;;;;;4930681;28;20058;-78
2024/01/27 01:38:58;;;;;;;9.77;1.17;;;;;;;;;;4963067;29;20031;-79
2024/01/27 01:41:26;;;;;;;13.90;1.73;;;;;;;;;;4931502;29;20035;-78
2024/01/27 01:43:59;;;;;;;7.00;1.35;;;;;;;;;;4946336;29;20111;-78
2024/01/27 01:46:27;;;;;;;9.05;1.80;;;;;;;;;;4963161;29;20035;-78
2024/01/27 01:48:53;;;;;;;5.38;2.17;;;;;;;;;;4929929;29;20181;-78
2024/01/27 01:51:20;;;;;;;11.10;1.77;;;;;;;;;;4963900;28;20064;-78
2024/01/27 01:53:48;;;;;;;13.68;1.63;;;;;;;;;;4946672;29;20042;-78
2024/01/27 01:56:16;;;;;;;11.82;2.13;;;;;;;;;;4929965;29;20507;-78
2024/01/27 01:58:43;;;;;;;11.48;1.58;;;;;;;;;;4945442;29;20057;-79
2024/01/27 02:01:15;;;;;;;8.85;1.83;;;;;;;;;;4962196;28;20047;-80
2024/01/27 02:03:53;;;;;;;10.55;1.48;;;;;;;;;;4961325;28;20382;-79
2024/01/27 02:06:19;;;;;;;8.27;1.57;;;;;;;;;;4961819;29;20027;-79
2024/01/27 02:08:45;;;;;;;15.65;2.08;;;;;;;;;;4944122;29;20041;-79
2024/01/27 02:11:14;;;;;;;17.02;2.38;;;;;;;;;;4929662;29;20479;-78
2024/01/27 02:13:43;;;;;;;13.25;2.78;;;;;;;;;;4928252;29;20054;-78
2024/01/27 02:16:09;;;;;;;16.73;1.77;;;;;;;;;;4912620;29;20216;-80
2024/01/27 02:18:37;;;;;;;14.70;1.65;;;;;;;;;;4942928;29;20491;-81
2024/01/27 02:21:03;;;;;;;11.35;1.98;;;;;;;;;;4928439;29;20046;-79
2024/01/27 02:23:29;;;;;;;10.88;1.38;;;;;;;;;;4927668;28;20043;-80
2024/01/27 02:26:01;;;;;;;14.60;2.00;;;;;;;;;;4912860;29;20023;-79
2024/01/27 02:28:31;;;;;;;9.40;1.83;;;;;;;;;;4943552;28;20082;-78
2024/01/27 02:31:03;;;;;;;12.27;1.70;;;;;;;;;;4944562;29;20028;-79
2024/01/27 02:33:39;;;;;;;9.68;1.73;;;;;;;;;;4946481;29;20031;-80
2024/01/27 02:36:06;;;;;;;13.43;1.55;;;;;;;;;;4943437;29;20028;-79
2024/01/27 02:38:35;;;;;;;16.15;1.65;;;;;;;;;;4927159;29;20123;-79
2024/01/27 02:41:02;;;;;;;9.85;1.40;;;;;;;;;;4928417;29;20039;-78
2024/01/27 02:43:32;;;;;;;12.20;2.40;;;;;;;;;;4946646;29;20036;-79
2024/01/27 02:45:59;;;;;;;16.38;1.67;;;;;;;;;;4935518;29;20087;-79
2024/01/27 02:48:26;;;;;;;13.38;1.30;;;;;;;;;;4942021;29;20024;-79
2024/01/27 02:50:54;;;;;;;;;;;;;;;;;;4962651;28;20043;-78
2024/01/27 02:53:20;;;;;;;14.13;2.03;;;;;;;;;;4946304;28;19977;-78
2024/01/27 02:55:47;;;;;;;17.13;1.50;;;;;;;;;;4949695;29;20035;-78
2024/01/27 02:58:16;;;;;;;11.32;1.60;;;;;;;;;;4930683;29;20126;-78
2024/01/27 03:00:45;;;;;;;8.50;1.63;;;;;;;;;;4929694;29;20101;-78
2024/01/27 03:03:11;;;;;;;15.30;1.88;;;;;;;;;;4929573;28;20043;-79
2024/01/27 03:05:40;;;;;;;13.77;1.88;;;;;;;;;;4946594;28;20063;-78
2024/01/27 03:08:08;;;;;;;6.78;1.38;;;;;;;;;;4909971;29;20063;-77
2024/01/27 03:10:41;;;;;;;12.95;1.45;;;;;;;;;;4926250;29;20027;-79
2024/01/27 03:13:12;;;;;;;14.32;1.80;;;;;;;;;;4909330;29;20046;-78
2024/01/27 03:15:39;;;;;;;6.65;1.15;;;;;;;;;;4925354;29;20172;-79
2024/01/27 03:18:10;;;;;;;13.85;1.95;;;;;;;;;;4908657;29;20035;-79
2024/01/27 03:20:36;;;;;;;14.32;1.65;;;;;;;;;;4908912;29;20205;-78
2024/01/27 03:23:02;;;;;;;12.02;1.70;;;;;;;;;;4910194;29;20064;-79
2024/01/27 03:25:28;;;;;;;10.40;1.92;;;;;;;;;;4942869;28;20036;-79
2024/01/27 03:29:30;;;;;;;12.50;2.00;;;;;;;;;;4943241;29;20039;-78
2024/01/27 03:33:10;;;;;;;10.95;2.08;;;;;;;;;;4925358;29;20043;-77
2024/01/27 03:36:20;;;;;;;9.77;1.40;;;;;;;;;;5026288;23;20408;-78
2024/01/27 03:40:02;;;;;;;14.35;1.73;;;;;;;;;;4967378;28;20045;-78
2024/01/27 03:46:24;;;;;;;6.53;1.35;;;;;;;;;;5434846;23;20078;-78
2024/01/27 03:48:53;;;;;;;8.57;1.27;;;;;;;;;;4974467;28;20027;-79
2024/01/27 03:51:28;;;;;;;10.82;1.40;;;;;;;;;;4959768;28;20030;-78
2024/01/27 03:54:00;;;;;;;8.32;1.35;;;;;;;;;;4929118;29;20043;-78
2024/01/27 03:56:29;;;;;;;14.63;2.08;;;;;;;;;;4912001;29;20034;-78
2024/01/27 03:59:06;;;;;;;14.27;1.55;;;;;;;;;;4912872;29;20059;-79
2024/01/27 04:01:32;;;;;;;7.40;1.40;;;;;;;;;;4947041;29;20071;-79
2024/01/27 04:03:59;;;;;;;15.32;1.50;;;;;;;;;;4921341;28;20036;-78
2024/01/27 04:06:25;;;;;;;14.27;1.70;;;;;;;;;;4911716;29;20051;-78
2024/01/27 04:08:51;;;;;;;9.05;1.63;;;;;;;;;;4946751;29;20087;-79
2024/01/27 04:11:24;;;;;;;18.13;1.80;;;;;;;;;;4947852;29;20071;-79
2024/01/27 04:13:51;;;;;;;8.45;1.42;;;;;;;;;;4963577;28;20023;-79
2024/01/27 04:16:17;;;;;;;15.18;1.65;;;;;;;;;;4947717;28;20050;-78
2024/01/27 04:25:34;;;;;;;13.60;1.88;;;;;;;;;;5285763;23;20050;-78
2024/01/27 04:28:01;;;;;;;14.55;1.67;;;;;;;;;;4951281;28;20039;-79
2024/01/27 04:30:32;;;;;;;14.48;1.80;;;;;;;;;;4946738;28;20039;-78
2024/01/27 04:33:00;;;;;;;18.40;1.60;;;;;;;;;;4932253;28;20049;-79
2024/01/27 04:35:26;;;;;;;19.33;2.45;;;;;;;;;;4966308;28;20047;-78
2024/01/27 04:37:55;;;;;;;12.02;1.20;;;;;;;;;;4980197;28;20034;-78
2024/01/27 04:40:25;;;;;;;10.80;1.48;;;;;;;;;;4963956;28;20036;-79
2024/01/27 04:42:59;;;;;;;15.20;1.85;;;;;;;;;;4981953;28;20034;-79
2024/01/27 04:47:03;;;;;;;13.45;2.10;;;;;;;;;;4996329;28;20108;-78
2024/01/27 04:51:11;;;;;;;14.75;1.65;;;;;;;;;;4962322;29;20493;-79
2024/01/27 04:54:43;;;;;;;15.57;1.60;;;;;;;;;;5088408;23;20054;-79
2024/01/27 05:13:03;;;;;;;8.55;1.65;;;;;;;;;;4906794;29;20043;-80
2024/01/27 05:15:59;;;;;;;20.38;2.10;;;;;;;;;;5243088;23;20051;-78
2024/01/27 05:18:28;;;;;;;12.75;1.88;;;;;;;;;;4981256;28;20061;-79
2024/01/27 05:20:54;;;;;;;9.90;1.60;;;;;;;;;;4982723;28;20054;-79
2024/01/27 05:23:27;;;;;;;10.48;1.40;;;;;;;;;;4978088;28;20035;-79
2024/01/27 05:25:56;;;;;;;11.18;1.85;;;;;;;;;;4956609;29;20106;-78
2024/01/27 05:28:26;;;;;;;11.98;1.40;;;;;;;;;;4949826;29;20042;-78
2024/01/27 05:30:52;;;;;;;14.57;2.53;;;;;;;;;;4933148;29;20043;-78
2024/01/27 05:33:18;;;;;;;14.90;1.75;;;;;;;;;;4948091;29;20036;-78
2024/01/27 05:35:46;;;;;;;13.63;1.80;;;;;;;;;;4964631;28;20031;-78
2024/01/27 05:38:16;;;;;;;15.07;2.13;;;;;;;;;;4932798;29;20037;-79
2024/01/27 05:40:45;;;;;;;9.77;1.70;;;;;;;;;;4947670;29;20039;-77
2024/01/27 05:43:36;;;;;;;12.95;1.50;;;;;;;;;;4950271;29;20110;-79
2024/01/27 05:46:08;;;;;;;21.10;2.53;;;;;;;;;;4961986;28;20035;-79
2024/01/27 05:48:43;;;;;;;12.57;1.73;;;;;;;;;;4930140;29;20040;-80
2024/01/27 05:51:13;;;;;;;13.40;3.10;;;;;;;;;;4962934;28;20130;-78
2024/01/27 05:53:41;;;;;;;10.93;1.42;;;;;;;;;;4977279;28;20027;-79
2024/01/27 05:56:18;;;;;;;10.50;2.22;;;;;;;;;;4960983;29;20028;-77
2024/01/27 05:58:57;;;;;;;12.45;2.17;;;;;;;;;;4965803;28;20042;-79
2024/01/27 06:01:34;;;;;;;10.02;1.63;;;;;;;;;;4959987;28;20039;-78
2024/01/27 06:04:00;;;;;;;17.00;2.67;;;;;;;;;;4964059;28;20039;-79
2024/01/27 06:06:27;;;;;;;13.60;2.17;;;;;;;;;;4975057;28;20027;-78
2024/01/27 06:08:54;;;;;;;15.95;1.77;;;;;;;;;;4958899;28;20035;-77
2024/01/27 06:11:42;;;;;;;19.13;2.28;;;;;;;;;;4982985;28;20030;-79
2024/01/27 06:14:30;;;;;;;17.88;2.38;;;;;;;;;;4975373;28;20037;-77
2024/01/27 06:16:59;;;;;;;17.30;2.45;;;;;;;;;;4973641;28;20039;-78
2024/01/27 06:19:28;;;;;;;10.32;1.63;;;;;;;;;;4942487;28;20497;-77
2024/01/27 06:21:54;;;;;;;20.95;3.50;;;;;;;;;;4941217;29;20042;-78
2024/01/27 06:24:24;;;;;;;14.32;2.65;;;;;;;;;;4943215;29;20037;-77
2024/01/27 06:26:49;;;;;;;13.52;2.17;;;;;;;;;;4941644;29;20122;-78
2024/01/27 06:29:16;;;;;;;11.90;2.55;;;;;;;;;;5063256;23;20545;-81
2024/01/27 06:31:44;;;;;;;17.98;2.20;;;;;;;;;;4961868;28;20394;-80
2024/01/27 06:34:10;;;;;;;11.75;2.67;;;;;;;;;;4958152;28;20379;-82
2024/01/27 06:36:41;;;;;;;12.00;2.00;;;;;;;;;;4953905;28;20047;-81
2024/01/27 06:39:07;;;;;;;10.65;1.73;;;;;;;;;;4923589;29;20042;-82
2024/01/27 06:41:33;;;;;;;10.25;1.48;;;;;;;;;;4924161;29;20126;-81
2024/01/27 06:43:59;;;;;;;14.18;1.80;;;;;;;;;;4923661;29;20171;-80
2024/01/27 06:46:26;;;;;;;12.35;2.00;;;;;;;;;;4907844;29;20031;-82
2024/01/27 06:48:51;;;;;;;15.15;1.58;;;;;;;;;;4924631;29;20027;-82
2024/01/27 06:51:19;;;;;;;14.13;2.03;;;;;;;;;;4926127;29;20403;-81
2024/01/27 06:53:46;;;;;;;19.25;2.20;;;;;;;;;;4952967;28;20037;-81
2024/01/27 06:56:17;;;;;;;16.23;1.98;;;;;;;;;;4963131;28;20039;-82
2024/01/27 06:58:43;;;;;;;11.38;1.77;;;;;;;;;;4958784;28;20043;-82
2024/01/27 07:01:12;;;;;;;13.15;2.47;;;;;;;;;;4961956;28;20027;-81
2024/01/27 07:03:40;;;;;;;8.35;1.63;;;;;;;;;;4980748;28;20030;-83
2024/01/27 07:06:06;;;;;;;12.45;1.73;;;;;;;;;;4947674;28;20031;-82
2024/01/27 07:08:37;;;;;;;19.00;2.15;;;;;;;;;;4955576;28;20038;-82
2024/01/27 07:11:06;;;;;;;11.38;2.15;;;;;;;;;;4941835;29;20023;-81
2024/01/27 07:13:42;;;;;;;18.25;2.38;;;;;;;;;;4942813;28;20042;-82
2024/01/27 07:16:11;;;;;;;12.43;1.80;;;;;;;;;;4941432;28;20039;-82
2024/01/27 07:18:40;;;;;;;;;;;;;;;;;;4958093;28;20034;-82
2024/01/27 07:21:05;;;;;;;18.38;2.22;;;;;;;;;;4957432;28;19910;-82
2024/01/27 07:23:31;;;;;;;16.58;1.73;;;;;;;;;;4930187;29;20050;-82
2024/01/27 07:26:03;;;;;;;11.25;2.40;;;;;;;;;;4938075;29;20046;-82
2024/01/27 07:28:34;;;;;;;17.63;2.97;;;;;;;;;;4964323;28;20037;-82
2024/01/27 07:31:02;;;;;;;15.35;2.75;;;;;;;;;;4942110;28;20041;-82
2024/01/27 07:33:28;;;;;;;;;;;;;;;;;;4941780;28;20038;-82
2024/01/27 07:35:54;;;;;;;9.52;1.45;;;;;;;;;;4957533;28;19910;-82
2024/01/27 07:38:20;;;;;;;13.45;2.40;;;;;;;;;;4957424;28;20060;-82
2024/01/27 07:40:49;;;;;;;14.27;2.53;;;;;;;;;;4947136;28;20047;-81
2024/01/27 07:43:17;;;;;;;12.20;2.35;;;;;;;;;;4965413;28;20042;-81
2024/01/27 07:49:43;;;;;;;12.57;2.20;;;;;;;;;;4963984;28;20027;-82
2024/01/27 07:53:21;;;;;;;16.60;2.60;;;;;;;;;;4995132;23;20089;-81
2024/01/27 07:55:47;;;;;;;16.73;2.42;;;;;;;;;;4957917;28;20055;-82
2024/01/27 07:58:16;;;;;;;22.48;2.55;;;;;;;;;;4925989;28;20118;-82
2024/01/27 08:00:55;;;;;;;13.82;3.10;;;;;;;;;;4943722;28;20057;-82
2024/01/27 08:03:23;;;;;;;15.63;2.23;;;;;;;;;;4941799;28;20101;-82
2024/01/27 08:05:51;;;;;;;18.10;2.58;;;;;;;;;;4925393;28;20375;-82
2024/01/27 08:08:20;;;;;;;14.55;2.75;;;;;;;;;;4925669;28;20035;-82
2024/01/27 08:10:48;;;;;;;11.73;2.00;;;;;;;;;;4958472;28;20031;-82
2024/01/27 08:13:13;;;;;;;13.82;3.00;;;;;;;;;;4941440;28;20491;-82
2024/01/27 08:15:42;;;;;;;;;;;;;;;;;;4927346;28;20117;-82
2024/01/27 08:18:09;;;;;;;17.83;3.03;;;;;;;;;;4941460;28;20405;-81
2024/01/27 08:20:38;;;;;;;;;;;;;;;;;;4941650;28;20046;-81
2024/01/27 08:23:14;;;;;;;12.88;3.15;;;;;;;;;;4960453;28;19928;-82
2024/01/27 08:25:40;;;;;;;17.80;3.28;;;;;;;;;;4964300;28;20125;-82
2024/01/27 08:28:23;;;;;;;16.80;2.90;;;;;;;;;;4966822;28;20081;-82
2024/01/27 08:31:01;;;;;;;9.63;2.55;;;;;;;;;;4968414;28;20034;-83
2024/01/27 08:33:27;;;;;;;17.40;3.10;;;;;;;;;;4950289;28;20026;-82
2024/01/27 08:36:04;;;;;;;20.42;2.15;;;;;;;;;;4957894;28;20101;-82
2024/01/27 08:38:30;;;;;;;12.30;2.38;;;;;;;;;;4965849;28;20019;-82
2024/01/27 08:40:59;;;;;;;16.25;2.58;;;;;;;;;;4972290;28;20026;-82
2024/01/27 08:43:30;;;;;;;12.75;1.85;;;;;;;;;;4972496;28;20094;-82
2024/01/27 08:45:56;;;;;;;16.50;3.17;;;;;;;;;;4967628;28;20040;-83
2024/01/27 08:48:24;;;;;;;15.65;3.17;;;;;;;;;;4980679;28;20042;-82
2024/01/27 08:50:56;;;;;;;17.08;3.25;;;;;;;;;;4955587;28;20053;-83
2024/01/27 08:53:39;;;;;;;15.15;3.20;;;;;;;;;;4966327;28;20073;-82
2024/01/27 08:56:17;;;;;;;11.57;2.97;;;;;;;;;;4943601;28;20038;-82
2024/01/27 08:58:53;;;;;;;13.73;2.85;;;;;;;;;;4945524;28;20049;-82
2024/01/27 09:01:28;;;;;;;14.48;3.00;;;;;;;;;;4945293;28;20105;-82
2024/01/27 09:03:57;;;;;;;18.92;2.70;;;;;;;;;;4960377;28;20038;-82
2024/01/27 09:06:28;;;;;;;11.85;2.35;;;;;;;;;;4945459;28;20130;-82
2024/01/27 09:09:02;;;;;;;18.75;2.70;;;;;;;;;;4929374;28;20045;-82
2024/01/27 09:11:30;;;;;;;14.95;3.35;;;;;;;;;;4927104;28;20461;-82
2024/01/27 09:14:16;;;;;;;14.80;2.70;;;;;;;;;;4996820;28;20100;-82
2024/01/27 09:16:50;;;;;;;18.92;3.08;;;;;;;;;;4942720;28;20030;-82
2024/01/27 09:19:19;;;;;;;20.35;2.92;;;;;;;;;;4960001;28;20050;-82
2024/01/27 09:21:45;;;;;;;12.43;2.85;;;;;;;;;;4945469;28;20097;-82
2024/01/27 09:24:28;;;;;;;17.65;2.97;;;;;;;;;;4946879;28;20532;-82
2024/01/27 09:26:54;;;;;;;13.93;2.88;;;;;;;;;;4961911;28;20034;-82
2024/01/27 09:29:30;;;;;;;14.20;2.80;;;;;;;;;;4946388;28;20053;-81
2024/01/27 09:32:02;;;;;;;18.17;2.55;;;;;;;;;;4961920;28;20046;-82
2024/01/27 09:34:34;;;;;;;23.10;3.13;;;;;;;;;;4961874;28;21407;-82
2024/01/27 09:37:09;;;;;;;8.10;2.03;;;;;;;;;;4984592;28;20030;-83
2024/01/27 09:39:43;;;;;;;;;;;;;;;;;;4973441;28;20050;-83
2024/01/27 09:42:56;;;;;;;15.82;2.70;;;;;;;;;;4999131;28;19932;-82
2024/01/27 09:45:46;;;;;;;14.60;3.20;;;;;;;;;;4978510;28;20030;-83
2024/01/27 09:48:25;;;;;;;14.75;3.35;;;;;;;;;;4976878;28;20056;-82
2024/01/27 09:50:58;;;;;;;17.90;2.70;;;;;;;;;;4989851;28;20086;-83
2024/01/27 09:53:46;;;;;;;19.08;2.75;;;;;;;;;;4991138;28;20026;-83
2024/01/27 09:56:18;;;;;;;19.05;3.67;;;;;;;;;;5002533;28;20056;-82
2024/01/27 09:58:55;;;;;;;14.98;2.83;;;;;;;;;;4965391;28;20035;-82
2024/01/27 10:01:28;;;;;;;17.98;3.20;;;;;;;;;;4981578;28;20033;-82
2024/01/27 10:03:58;;;;;;;18.05;3.22;;;;;;;;;;4990481;28;20017;-82
2024/01/27 10:06:28;;;;;;;18.42;3.20;;;;;;;;;;4963880;28;20026;-81
2024/01/27 10:08:55;;;;;;;22.38;3.30;;;;;;;;;;4982323;28;20034;-82
2024/01/27 10:11:24;;;;;;;12.75;2.72;;;;;;;;;;4972781;28;20034;-82
2024/01/27 10:13:54;;;;;;;21.52;3.00;;;;;;;;;;4986168;28;20014;-82
2024/01/27 10:16:20;;;;;;;17.73;3.50;;;;;;;;;;4965203;28;20022;-82
2024/01/27 10:18:46;;;;;;;17.55;3.75;;;;;;;;;;4971722;28;20061;-82
2024/01/27 10:21:16;;;;;;;17.13;3.78;;;;;;;;;;4970431;28;20210;-82
2024/01/27 10:23:47;;;;;;;26.83;3.25;;;;;;;;;;4943858;28;20038;-82
2024/01/27 10:26:15;;;;;;;15.23;3.60;;;;;;;;;;4948780;28;20034;-82
2024/01/27 10:28:42;;;;;;;12.45;3.17;;;;;;;;;;4963397;28;20474;-82
2024/01/27 10:31:13;;;;;;;18.42;3.80;;;;;;;;;;4948013;28;20459;-82
2024/01/27 10:33:42;;;;;;;17.75;3.38;;;;;;;;;;4961107;28;20060;-82
2024/01/27 10:36:08;;;;;;;18.73;3.10;;;;;;;;;;4943078;28;20031;-82
2024/01/27 10:38:41;;;;;;;20.20;4.32;;;;;;;;;;4974946;28;20089;-82
2024/01/27 10:41:11;;;;;;;13.38;3.78;;;;;;;;;;4962619;28;20093;-81
2024/01/27 10:43:40;;;;;;;20.05;4.03;;;;;;;;;;4998638;28;20029;-82
2024/01/27 10:46:12;;;;;;;18.90;3.28;;;;;;;;;;4980093;28;20037;-82
2024/01/27 10:48:38;;;;;;;21.73;3.90;;;;;;;;;;4978004;28;20378;-82
2024/01/27 10:51:10;;;;;;;14.27;3.20;;;;;;;;;;4947436;28;20077;-82
2024/01/27 10:53:37;;;;;;;15.20;4.10;;;;;;;;;;4990636;28;20043;-82
2024/01/27 10:56:23;;;;;;;27.17;3.85;;;;;;;;;;4965458;28;20042;-82
2024/01/27 10:58:50;;;;;;;22.20;4.22;;;;;;;;;;4916239;28;20050;-82
2024/01/27 11:01:22;;;;;;;19.58;3.80;;;;;;;;;;4956073;28;20073;-82
2024/01/27 11:03:51;;;;;;;22.48;3.63;;;;;;;;;;4985121;28;20061;-82
2024/01/27 11:06:21;;;;;;;24.33;4.07;;;;;;;;;;5014391;28;20023;-82
2024/01/27 11:08:50;;;;;;;20.33;3.20;;;;;;;;;;4978012;28;20044;-82
2024/01/27 11:11:21;;;;;;;14.02;2.92;;;;;;;;;;4948444;28;20126;-82
2024/01/27 11:13:50;;;;;;;;;;;;;;;;;;4947560;28;20034;-82
2024/01/27 11:16:35;;;;;;;18.13;3.05;;;;;;;;;;4962070;28;19949;-82
2024/01/27 11:19:59;;;;;;;19.15;3.20;;;;;;;;;;4973831;28;20096;-82
2024/01/27 11:29:45;;;;;;;;;;;;;;;;;;4978732;28;20054;-83
2024/01/27 11:38:43;;;;;;;15.07;3.35;;;;;;;;;;5571344;23;20046;-82
2024/01/27 11:41:11;;;;;;;14.38;2.72;;;;;;;;;;4945073;28;20121;-82
2024/01/27 11:43:39;;;;;;;17.40;2.90;;;;;;;;;;4964416;28;20049;-81
2024/01/27 11:46:06;;;;;;;9.88;2.75;;;;;;;;;;4959824;28;20038;-81
2024/01/27 11:48:46;;;;;;;29.00;3.50;;;;;;;;;;4942253;28;20080;-82
2024/01/27 11:51:24;;;;;;;16.92;3.20;;;;;;;;;;4949299;28;20062;-83
2024/01/27 11:53:53;;;;;;;12.90;3.22;;;;;;;;;;4949188;29;20047;-83
2024/01/27 11:56:36;;;;;;;12.05;2.78;;;;;;;;;;4927584;28;20035;-82
2024/01/27 11:59:09;;;;;;;18.52;2.65;;;;;;;;;;4966271;28;20077;-81
2024/01/27 12:01:41;;;;;;;15.98;3.58;;;;;;;;;;4942616;28;20034;-81
2024/01/27 12:04:09;;;;;;;12.25;2.67;;;;;;;;;;4944607;28;20397;-81
2024/01/27 12:06:39;;;;;;;9.68;2.60;;;;;;;;;;4935465;28;20030;-83
2024/01/27 12:09:13;;;;;;;20.50;3.80;;;;;;;;;;4936163;28;20045;-83
2024/01/27 12:11:56;;;;;;;;;;;;;;;;;;4950246;28;20049;-81
2024/01/27 12:14:25;;;;;;;11.68;3.17;;;;;;;;;;4948567;28;19916;-81
2024/01/27 12:16:55;;;;;;;22.55;3.42;;;;;;;;;;4966643;28;20041;-83
2024/01/27 12:19:21;;;;;;;13.85;2.22;;;;;;;;;;4966869;28;20126;-81
2024/01/27 12:21:51;;;;;;;13.15;2.95;;;;;;;;;;4950429;28;20034;-82
2024/01/27 12:24:23;;;;;;;11.65;2.90;;;;;;;;;;4980330;28;20058;-82
2024/01/27 12:26:49;;;;;;;10.23;2.42;;;;;;;;;;4951126;28;20053;-83
2024/01/27 12:29:15;;;;;;;12.75;2.67;;;;;;;;;;4969257;28;20034;-82
2024/01/27 12:31:46;;;;;;;16.15;2.65;;;;;;;;;;4963955;28;20042;-82
2024/01/27 12:34:22;;;;;;;15.77;2.67;;;;;;;;;;4966304;28;20030;-82
2024/01/27 12:36:56;;;;;;;11.60;2.63;;;;;;;;;;4971034;28;20038;-83
2024/01/27 12:39:25;;;;;;;15.30;3.05;;;;;;;;;;4970637;28;20050;-82
2024/01/27 12:42:04;;;;;;;16.92;2.83;;;;;;;;;;4988008;28;20029;-82
2024/01/27 12:51:41;;;;;;;16.35;2.20;;;;;;;;;;4972343;28;20114;-82
2024/01/27 12:54:14;;;;;;;10.15;2.13;;;;;;;;;;4931531;28;20027;-83
2024/01/27 12:57:02;;;;;;;13.52;2.40;;;;;;;;;;4960819;29;20019;-82
2024/01/27 12:59:29;;;;;;;8.82;1.95;;;;;;;;;;4929022;29;20035;-81
2024/01/27 13:01:56;;;;;;;7.32;1.95;;;;;;;;;;4922922;29;20410;-81
2024/01/27 13:04:32;;;;;;;20.23;2.63;;;;;;;;;;4933339;28;20042;-82
2024/01/27 13:07:10;;;;;;;10.82;2.38;;;;;;;;;;4984839;28;20061;-81
2024/01/27 13:09:51;;;;;;;13.25;2.97;;;;;;;;;;4966659;28;20421;-81
2024/01/27 13:12:26;;;;;;;13.50;2.15;;;;;;;;;;4951221;28;20034;-81
2024/01/27 13:15:01;;;;;;;19.40;3.75;;;;;;;;;;4986249;28;20116;-82
2024/01/27 13:17:38;;;;;;;14.55;2.38;;;;;;;;;;4976486;28;20054;-81
2024/01/27 13:20:05;;;;;;;11.57;2.13;;;;;;;;;;4945733;29;20031;-82
2024/01/27 13:22:38;;;;;;;12.75;2.42;;;;;;;;;;4915959;29;20113;-82
2024/01/27 13:25:05;;;;;;;14.85;2.38;;;;;;;;;;4964720;28;20035;-81
2024/01/27 13:27:31;;;;;;;13.52;2.40;;;;;;;;;;4935640;28;20031;-82
2024/01/27 13:29:58;;;;;;;8.27;2.17;;;;;;;;;;4935400;28;20082;-82
2024/01/27 13:32:29;;;;;;;12.18;2.92;;;;;;;;;;4935527;28;20093;-81
2024/01/27 13:34:56;;;;;;;8.05;2.05;;;;;;;;;;4948292;28;20038;-81
2024/01/27 13:37:34;;;;;;;17.00;2.65;;;;;;;;;;4938806;29;20067;-81
2024/01/27 13:40:07;;;;;;;10.50;1.85;;;;;;;;;;4940502;29;20043;-82
2024/01/27 13:42:41;;;;;;;11.75;2.13;;;;;;;;;;4955617;28;20033;-82
2024/01/27 13:45:24;;;;;;;8.68;1.80;;;;;;;;;;4966538;28;20049;-82
2024/01/27 13:55:21;;;;;;;12.88;2.00;;;;;;;;;;5312891;23;20062;-82
2024/01/27 13:57:55;;;;;;;9.02;2.45;;;;;;;;;;4946408;28;20037;-82
2024/01/27 14:00:26;;;;;;;10.25;1.85;;;;;;;;;;4939109;28;20031;-82
2024/01/27 14:02:59;;;;;;;13.82;2.25;;;;;;;;;;4932488;28;20043;-82
2024/01/27 14:05:25;;;;;;;18.98;2.40;;;;;;;;;;4935853;29;20040;-82
2024/01/27 14:07:52;;;;;;;11.05;2.08;;;;;;;;;;4948520;28;20051;-82
2024/01/27 14:10:26;;;;;;;16.58;3.00;;;;;;;;;;4983212;28;20023;-82
2024/01/27 14:12:58;;;;;;;12.65;2.40;;;;;;;;;;4962767;28;20031;-81
2024/01/27 14:15:52;;;;;;;8.27;2.03;;;;;;;;;;4951120;28;20071;-82
2024/01/27 14:18:20;;;;;;;18.80;2.80;;;;;;;;;;4946876;28;20526;-82
2024/01/27 14:20:51;;;;;;;10.52;1.92;;;;;;;;;;4945418;28;20038;-82
2024/01/27 14:23:17;;;;;;;13.98;2.38;;;;;;;;;;4928304;28;20189;-81
2024/01/27 14:25:45;;;;;;;12.43;2.55;;;;;;;;;;4928567;28;20584;-82
2024/01/27 14:28:20;;;;;;;8.38;1.80;;;;;;;;;;4944740;28;20031;-82
2024/01/27 14:30:46;;;;;;;12.68;2.05;;;;;;;;;;4942359;29;20071;-82
2024/01/27 14:33:41;;;;;;;8.18;1.73;;;;;;;;;;4940296;29;20047;-82
2024/01/27 14:36:11;;;;;;;12.07;3.03;;;;;;;;;;4942125;29;20043;-81
2024/01/27 14:39:04;;;;;;;9.60;2.05;;;;;;;;;;4927411;29;20131;-82
2024/01/27 14:41:51;;;;;;;13.90;2.28;;;;;;;;;;4956334;28;20502;-82
2024/01/27 14:44:22;;;;;;;7.57;1.85;;;;;;;;;;4918354;29;20051;-82
2024/01/27 14:46:50;;;;;;;8.15;1.98;;;;;;;;;;4969407;28;20025;-82
2024/01/27 14:49:24;;;;;;;13.30;2.15;;;;;;;;;;4955234;28;20568;-81
2024/01/27 14:51:51;;;;;;;9.40;2.45;;;;;;;;;;4943670;28;20493;-83
2024/01/27 14:54:39;;;;;;;12.13;2.25;;;;;;;;;;4972472;28;20043;-82
2024/01/27 14:57:15;;;;;;;;;;;;;;;;;;;;;
2024/01/27 14:59:49;;;;;;;8.93;1.70;;;;;;;;;;4954697;28;20126;-83
2024/01/27 15:02:25;;;;;;;10.48;2.10;;;;;;;;;;4964624;28;20031;-82
2024/01/27 15:04:58;;;;;;;9.73;1.90;;;;;;;;;;4942186;28;20042;-82
2024/01/27 15:07:30;;;;;;;14.52;2.28;;;;;;;;;;4953421;28;20445;-82
2024/01/27 15:10:11;;;;;;;11.38;1.80;;;;;;;;;;4950456;28;20053;-82
2024/01/27 15:12:38;;;;;;;9.75;1.55;;;;;;;;;;4952061;28;20117;-82
2024/01/27 15:15:19;;;;;;;10.70;1.77;;;;;;;;;;4974559;28;20077;-82
2024/01/27 15:21:04;;;;;;;10.48;2.85;;;;;;;;;;4939936;28;20038;-81
2024/01/27 15:23:33;;;;;;;6.45;1.70;;;;;;;;;;4951493;28;20047;-83
2024/01/27 15:26:03;;;;;;;10.38;2.13;;;;;;;;;;4930154;28;20061;-81
2024/01/27 15:28:34;;;;;;;17.80;1.92;;;;;;;;;;4964883;28;20079;-82
2024/01/27 15:31:04;;;;;;;12.55;2.53;;;;;;;;;;4994484;28;20017;-82
2024/01/27 15:33:37;;;;;;;14.00;2.20;;;;;;;;;;4982460;28;20099;-81
2024/01/27 15:36:05;;;;;;;11.38;2.70;;;;;;;;;;4955552;28;20030;-81
2024/01/27 15:38:31;;;;;;;9.93;2.08;;;;;;;;;;4942629;29;20027;-82
2024/01/27 15:41:02;;;;;;;11.98;2.42;;;;;;;;;;4954250;28;20043;-82
2024/01/27 15:43:57;;;;;;;10.85;1.98;;;;;;;;;;4952666;28;20093;-82
2024/01/27 15:46:26;;;;;;;10.88;1.95;;;;;;;;;;4929500;28;20530;-82
2024/01/27 15:48:52;;;;;;;10.80;2.15;;;;;;;;;;4928952;28;20073;-82
2024/01/27 15:51:21;;;;;;;13.73;2.25;;;;;;;;;;4942949;28;20065;-81
2024/01/27 15:53:52;;;;;;;12.52;1.83;;;;;;;;;;4958769;28;20057;-82
2024/01/27 15:56:20;;;;;;;11.73;1.93;;;;;;;;;;4962835;28;20046;-82
2024/01/27 15:58:48;;;;;;;11.35;2.33;;;;;;;;;;4926507;28;20376;-82
2024/01/27 16:01:17;;;;;;;8.98;1.70;;;;;;;;;;4953793;28;20082;-82
2024/01/27 16:03:51;;;;;;;14.45;1.92;;;;;;;;;;4955658;29;20042;-82
2024/01/27 16:06:35;;;;;;;;;;;;;;;;;;;;;
2024/01/27 16:09:12;;;;;;;10.60;2.40;;;;;;;;;;4960255;28;20058;-80
2024/01/27 16:11:43;;;;;;;15.57;2.85;;;;;;;;;;4971225;28;20027;-82
2024/01/27 16:14:26;;;;;;;6.53;1.92;;;;;;;;;;4959074;28;20039;-82
2024/01/27 16:17:15;;;;;;;11.02;2.05;;;;;;;;;;4943865;28;20495;-83
2024/01/27 16:19:41;;;;;;;11.90;2.42;;;;;;;;;;4910946;28;20046;-81
2024/01/27 16:22:08;;;;;;;9.95;2.40;;;;;;;;;;4959792;28;20034;-82
2024/01/27 16:24:36;;;;;;;10.15;2.20;;;;;;;;;;4925337;28;20049;-81
2024/01/27 16:27:05;;;;;;;15.10;2.47;;;;;;;;;;4958300;28;20027;-82
2024/01/27 16:29:42;;;;;;;15.30;2.30;;;;;;;;;;4941195;28;20047;-82
2024/01/27 16:32:10;;;;;;;8.65;2.08;;;;;;;;;;4942567;28;20030;-81